Belen, NM (87002)

2:47 PM MDT on July 25, 2014 (GMT -0600)
Belen (KNMBELEN2) Elev 4806 ft | 34.66 °N, 106.78 °W | Change Station

Current weather conditions updated 6 minutes ago

Clear
Clear
100.4 °F
Feels Like 96 °F
N
3.7
Wind Variable Wind from ENE

Today is forecast to be Warmer than yesterday.

Today
High -- | Low -- °F
--% Chance of Precip.
Yesterday
High -- | Low -- °F
Precip. -- in
6:11 AM 8:14 PM
Waning Crescent, 1% visible
Pressure 30.14 in
Visibility 10.0 miles
Clouds Clear
Heat Index 96 °F
Dew Point 44 °F
Humidity 15%
Rainfall 0.00 in
Snow Depth Not available.
UV 12 out of 12
Pollen 4.40 out of 12
Air Quality Not available.
Flu Activity Not available.
METAR KE80 252035Z AUTO 35007KT 10SM CLR 35/07 A3014 RMK AO2 T03530066

More Conditions Fewer Conditions

Pressure 30.14 in
Visibility 10.0 miles
Clouds Clear
Heat Index 96 °F
Dew Point 44 °F
Humidity 15%
Rainfall 0.00 in
Snow Depth Not available.
UV 12 out of 12
Pollen 4.40 out of 12
Air Quality Not available.
Flu Activity Not available.
METAR KE80 252035Z AUTO 35007KT 10SM CLR 35/07 A3014 RMK AO2 T03530066

More Conditions Fewer Conditions

10-Day Weather Forecast

Almanac

Astronomy

Jul. 25, 2014 Rise Set
Actual Time 6:11 AM MDT 8:14 PM MDT
Civil Twilight 5:43 AM MDT 8:42 PM MDT
Nautical Twilight 5:09 AM MDT 9:16 PM MDT
Astronomical Twilight 4:32 AM MDT 9:53 PM MDT
Moon 5:12 AM MDT 7:15 PM MDT
Length of Visible Light 14h 58m
Length of Day
14h 02m
Tomorrow will be 1m 27s shorter.
Waning Crescent, 1% of the Moon is Illuminated
Today
Waning Crescent
Jul 26
New
Aug 3
First Quarter
Aug 10
Full
Aug 17
Last Quarter

Today's Extremes

State Highs State Lows

Community

WunderPhotos

Upload Photos

1,737,396 photos uploaded!

Nearby

Snow Depth

Station Depth Elevation
Santa Fe 0 in 11445 ft
Sierra Blanca 0 in 10280 ft
Wesner Springs 0 in 11120 ft

Earthquake Activity

City Distance Mag. Time & Date
No recent earthquake activity has been reported nearby.
Minimum magnitude displayed is 2.5.

Coastal Water Temperatures

Place Temperature
No Stations Reporting

Nearby Weather Stations

Station Location Temp. Heat Index Dew Point Humidity Wind Precip. Elev Updated Type
Belen, Belen, NM 100.4 °F 96 °F 44 °F 15% ENE  at  3.7 mph - / hr 4806 ft 2:41 PM MDT Normal
MesoWest LOS LUNAS PMC , Tome, NM 96 °F 92 °F 44 °F 17% South  at  3 mph 0.00 in / hr 4846 ft 1:00 PM MDT MADIS
Valencia Y, Los Lunas, NM 97.6 °F 93 °F 48 °F 13% NE  at  2.0 mph 0.00 in / hr 4852 ft 2:47 PM MDT Rapid Fire
Huning Ranch, Los Lunas, NM 101.5 °F 96 °F 35 °F 10% NE  at  0.4 mph 0.00 in / hr 5020 ft 2:47 PM MDT Rapid Fire
Loma Parda, Mountainair, NM 90.3 °F 87 °F 44 °F 20% ESE  at  8.0 mph 0.00 in / hr 6467 ft 2:38 PM MDT Normal
Red Bluff, Mountainair, NM 94.8 °F 91 °F 49 °F 21% West  at  4.2 mph - / hr 6729 ft 2:45 PM MDT Normal

Show More Stations Show Fewer Stations